METAR Data
IDs: Format: Raw Decoded Include TAF

Data at: 2034 UTC 17 Nov 2019

KCOU 171954Z 23008KT 10SM BKN075 OVC090 07/04 A2991 RMK AO2 RAE34 SLP132 P0000 T00720044
KCOU 171854Z 21008KT 8SM -RA OVC055 07/04 A2993 RMK AO2 SLP140 P0004 T00670044
KCOU 171754Z 26008KT 10SM -RA OVC070 08/02 A2996 RMK AO2 RAB49 SLP147 P0000 60000 T00780022 10089 20039 56013
KCOU 171654Z 24007KT 10SM OVC100 09/00 A2996 RMK AO2 SLP149 T00890000
KCOU 171554Z 20007KT 10SM OVC100 07/00 A2998 RMK AO2 SLP155 T00720000
KCOU 171454Z 18004KT 10SM FEW120 06/00 A2999 RMK AO2 SLP160 T00610000 56007
KCOU 171354Z 17007KT 10SM CLR 06/M01 A3000 RMK AO2 SLP162 T00561006
KCOU 171254Z 17007KT 10SM CLR 04/M01 A3000 RMK AO2 SLP163 T00441006
KCOU 171154Z AUTO 16005KT 10SM CLR 04/M01 A3002 RMK AO2 SLP168 T00391006 10044 20033 58013
KCOU 171054Z AUTO 15006KT 10SM CLR 04/M01 A3004 RMK AO2 SLP174 T00391006
KCOU 170954Z AUTO 15006KT 10SM CLR 03/00 A3005 RMK AO2 SLP177 T00330000
KCOU 170854Z AUTO 14007KT 10SM CLR 03/00 A3006 RMK AO2 SLP180 T00330000 58017
KCOU 170754Z AUTO 14006KT 10SM CLR 03/00 A3009 RMK AO2 SLP190 T00330000
KCOU 170654Z AUTO 13006KT 10SM CLR 03/00 A3009 RMK AO2 SLP193 T00330000
KCOU 170554Z AUTO 13006KT 10SM CLR 03/M01 A3011 RMK AO2 SLP199 T00331006 10083 20028 401221006 58001
KCOU 170454Z AUTO 13005KT 10SM CLR 04/00 A3011 RMK AO2 SLP200 T00390000
KCOU 170354Z AUTO 12009KT 10SM CLR 05/00 A3011 RMK AO2 SLP201 T00500000
KCOU 170254Z 12007KT 10SM CLR 05/00 A3011 RMK AO2 SLP202 T00500000 55004
KCOU 170154Z 12008KT 10SM CLR 06/01 A3011 RMK AO2 SLP200 T00560006
KCOU 170054Z 11007KT 10SM CLR 07/01 A3012 RMK AO2 SLP204 T00670006
KCOU 162354Z 11008KT 10SM CLR 08/01 A3012 RMK AO2 SLP205 T00830006 10122 20083 56012
KCOU 162254Z 11006KT 10SM CLR 09/01 A3013 RMK AO2 SLP207 T00940006
KCOU 162154Z 12007KT 10SM CLR 12/01 A3014 RMK AO2 SLP211 T01170006
KCOU 162054Z 13007KT 10SM CLR 12/01 A3016 RMK AO2 SLP216 T01170006 56032
KCOU 161954Z 13007KT 10SM CLR 12/00 A3019 RMK AO2 SLP225 T01170000
KCOU 161854Z 13005KT 10SM CLR 10/M01 A3022 RMK AO2 SLP236 T01001006
KCOU 161754Z VRB04KT 10SM CLR 09/M01 A3026 RMK AO2 SLP249 T00941006 10094 21006 58021
KCOU 161654Z 15009KT 10SM CLR 08/M02 A3029 RMK AO2 SLP262 T00781017
KCOU 161554Z 13010KT 10SM CLR 05/M03 A3031 RMK AO2 SLP271 T00501028
KCOU 161454Z 13007KT 10SM CLR 03/M04 A3032 RMK AO2 SLP273 T00331039 55000
KCOU 161354Z 12006KT 10SM CLR 01/M04 A3032 RMK AO2 SLP272 T00061044
KCOU 161254Z 12007KT 10SM CLR 00/M06 A3032 RMK AO2 SLP271 T00001061
KCOU 161154Z AUTO 12006KT 10SM CLR 00/M06 A3032 RMK AO2 SLP273 T00001061 10022 20000 53002
KCOU 161054Z AUTO 11006KT 10SM CLR 00/M06 A3031 RMK AO2 SLP270 T00001061
KCOU 160954Z AUTO 12005KT 10SM CLR 01/M06 A3031 RMK AO2 SLP269 T00061061
KCOU 160854Z AUTO 11007KT 10SM CLR 01/M06 A3032 RMK AO2 SLP270 T00061061 56007